sensor_id;sensor_type;location;lat;lon;timestamp;P1;durP1;ratioP1;P2;durP2;ratioP2
31724;SDS011;18306;40.960;14.836;2024-02-26T00:01:04;8.18;;;5.68;;
31724;SDS011;18306;40.960;14.836;2024-02-26T00:03:31;9.63;;;5.65;;
31724;SDS011;18306;40.960;14.836;2024-02-26T00:06:02;8.88;;;5.43;;
31724;SDS011;18306;40.960;14.836;2024-02-26T00:08:29;7.05;;;5.78;;
31724;SDS011;18306;40.960;14.836;2024-02-26T00:10:56;9.05;;;5.22;;
31724;SDS011;18306;40.960;14.836;2024-02-26T00:13:23;9.68;;;4.93;;
31724;SDS011;18306;40.960;14.836;2024-02-26T00:15:50;8.20;;;5.43;;
31724;SDS011;18306;40.960;14.836;2024-02-26T00:18:17;9.05;;;5.70;;
31724;SDS011;18306;40.960;14.836;2024-02-26T00:20:44;11.00;;;6.35;;
31724;SDS011;18306;40.960;14.836;2024-02-26T00:23:11;8.85;;;6.57;;
31724;SDS011;18306;40.960;14.836;2024-02-26T00:25:40;6.63;;;5.32;;
31724;SDS011;18306;40.960;14.836;2024-02-26T00:28:10;9.57;;;7.10;;
31724;SDS011;18306;40.960;14.836;2024-02-26T00:30:37;9.52;;;5.55;;
31724;SDS011;18306;40.960;14.836;2024-02-26T00:33:04;8.50;;;5.97;;
31724;SDS011;18306;40.960;14.836;2024-02-26T00:35:31;8.85;;;6.93;;
31724;SDS011;18306;40.960;14.836;2024-02-26T00:37:58;11.32;;;6.82;;
31724;SDS011;18306;40.960;14.836;2024-02-26T00:40:25;9.52;;;6.05;;
31724;SDS011;18306;40.960;14.836;2024-02-26T00:42:53;7.00;;;4.63;;
31724;SDS011;18306;40.960;14.836;2024-02-26T00:45:20;6.13;;;4.35;;
31724;SDS011;18306;40.960;14.836;2024-02-26T00:47:47;9.23;;;4.47;;
31724;SDS011;18306;40.960;14.836;2024-02-26T00:50:14;8.70;;;5.55;;
31724;SDS011;18306;40.960;14.836;2024-02-26T00:52:42;12.00;;;7.32;;
31724;SDS011;18306;40.960;14.836;2024-02-26T00:55:09;8.48;;;6.20;;
31724;SDS011;18306;40.960;14.836;2024-02-26T00:57:36;14.27;;;8.45;;
31724;SDS011;18306;40.960;14.836;2024-02-26T01:00:03;10.38;;;6.78;;
31724;SDS011;18306;40.960;14.836;2024-02-26T01:02:31;10.30;;;7.28;;
31724;SDS011;18306;40.960;14.836;2024-02-26T01:04:58;11.68;;;6.65;;
31724;SDS011;18306;40.960;14.836;2024-02-26T01:07:25;10.10;;;7.15;;
31724;SDS011;18306;40.960;14.836;2024-02-26T01:09:52;5.55;;;4.80;;
31724;SDS011;18306;40.960;14.836;2024-02-26T01:12:19;6.55;;;4.30;;
31724;SDS011;18306;40.960;14.836;2024-02-26T01:14:46;7.22;;;4.03;;
31724;SDS011;18306;40.960;14.836;2024-02-26T01:17:12;8.32;;;4.15;;
31724;SDS011;18306;40.960;14.836;2024-02-26T01:19:39;5.55;;;3.67;;
31724;SDS011;18306;40.960;14.836;2024-02-26T01:22:07;6.18;;;4.10;;
31724;SDS011;18306;40.960;14.836;2024-02-26T01:24:34;11.05;;;6.72;;
31724;SDS011;18306;40.960;14.836;2024-02-26T01:27:01;9.98;;;6.97;;
31724;SDS011;18306;40.960;14.836;2024-02-26T01:29:28;9.77;;;6.60;;
31724;SDS011;18306;40.960;14.836;2024-02-26T01:31:55;13.77;;;7.90;;
31724;SDS011;18306;40.960;14.836;2024-02-26T01:34:22;17.98;;;8.98;;
31724;SDS011;18306;40.960;14.836;2024-02-26T01:36:49;16.15;;;8.73;;
31724;SDS011;18306;40.960;14.836;2024-02-26T01:39:16;12.82;;;8.55;;
31724;SDS011;18306;40.960;14.836;2024-02-26T01:41:43;8.60;;;6.72;;
31724;SDS011;18306;40.960;14.836;2024-02-26T01:44:11;10.18;;;6.55;;
31724;SDS011;18306;40.960;14.836;2024-02-26T01:46:42;8.30;;;5.70;;
31724;SDS011;18306;40.960;14.836;2024-02-26T01:49:09;9.68;;;6.00;;
31724;SDS011;18306;40.960;14.836;2024-02-26T01:51:39;13.82;;;7.35;;
31724;SDS011;18306;40.960;14.836;2024-02-26T01:54:07;7.75;;;5.82;;
31724;SDS011;18306;40.960;14.836;2024-02-26T01:56:35;8.68;;;6.38;;
31724;SDS011;18306;40.960;14.836;2024-02-26T01:59:03;19.50;;;12.02;;
31724;SDS011;18306;40.960;14.836;2024-02-26T02:01:32;45.10;;;21.67;;
31724;SDS011;18306;40.960;14.836;2024-02-26T02:04:01;26.25;;;16.30;;
31724;SDS011;18306;40.960;14.836;2024-02-26T02:06:28;17.63;;;10.02;;
31724;SDS011;18306;40.960;14.836;2024-02-26T02:08:56;13.35;;;8.43;;
31724;SDS011;18306;40.960;14.836;2024-02-26T02:11:23;13.38;;;7.07;;
31724;SDS011;18306;40.960;14.836;2024-02-26T02:13:50;25.70;;;13.95;;
31724;SDS011;18306;40.960;14.836;2024-02-26T02:16:17;12.90;;;8.23;;
31724;SDS011;18306;40.960;14.836;2024-02-26T02:18:44;18.08;;;9.90;;
31724;SDS011;18306;40.960;14.836;2024-02-26T02:21:12;13.60;;;8.43;;
31724;SDS011;18306;40.960;14.836;2024-02-26T02:23:39;15.45;;;7.93;;
31724;SDS011;18306;40.960;14.836;2024-02-26T02:26:06;19.02;;;10.88;;
31724;SDS011;18306;40.960;14.836;2024-02-26T02:28:33;15.50;;;10.02;;
31724;SDS011;18306;40.960;14.836;2024-02-26T02:31:00;10.23;;;6.65;;
31724;SDS011;18306;40.960;14.836;2024-02-26T02:33:27;7.80;;;5.57;;
31724;SDS011;18306;40.960;14.836;2024-02-26T02:35:54;9.07;;;5.78;;
31724;SDS011;18306;40.960;14.836;2024-02-26T02:38:21;12.18;;;5.88;;
31724;SDS011;18306;40.960;14.836;2024-02-26T02:40:49;9.77;;;7.70;;
31724;SDS011;18306;40.960;14.836;2024-02-26T02:43:16;12.05;;;6.75;;
31724;SDS011;18306;40.960;14.836;2024-02-26T02:45:44;11.60;;;7.55;;
31724;SDS011;18306;40.960;14.836;2024-02-26T02:48:11;13.05;;;6.80;;
31724;SDS011;18306;40.960;14.836;2024-02-26T02:50:39;10.73;;;7.07;;
31724;SDS011;18306;40.960;14.836;2024-02-26T02:53:06;17.52;;;7.25;;
31724;SDS011;18306;40.960;14.836;2024-02-26T02:55:33;11.05;;;7.13;;
31724;SDS011;18306;40.960;14.836;2024-02-26T02:58:00;11.52;;;6.80;;
31724;SDS011;18306;40.960;14.836;2024-02-26T03:00:27;6.68;;;5.90;;
31724;SDS011;18306;40.960;14.836;2024-02-26T03:02:54;7.63;;;5.97;;
31724;SDS011;18306;40.960;14.836;2024-02-26T03:05:21;25.02;;;12.02;;
31724;SDS011;18306;40.960;14.836;2024-02-26T03:07:48;18.77;;;9.60;;
31724;SDS011;18306;40.960;14.836;2024-02-26T03:10:15;19.95;;;11.48;;
31724;SDS011;18306;40.960;14.836;2024-02-26T03:12:42;19.48;;;9.88;;
31724;SDS011;18306;40.960;14.836;2024-02-26T03:15:09;13.80;;;8.00;;
31724;SDS011;18306;40.960;14.836;2024-02-26T03:17:37;14.77;;;8.80;;
31724;SDS011;18306;40.960;14.836;2024-02-26T03:20:04;15.15;;;8.82;;
31724;SDS011;18306;40.960;14.836;2024-02-26T03:22:34;11.77;;;8.23;;
31724;SDS011;18306;40.960;14.836;2024-02-26T03:25:01;14.45;;;8.75;;
31724;SDS011;18306;40.960;14.836;2024-02-26T03:27:28;16.17;;;9.48;;
31724;SDS011;18306;40.960;14.836;2024-02-26T03:29:55;10.00;;;7.45;;
31724;SDS011;18306;40.960;14.836;2024-02-26T03:32:23;12.07;;;7.70;;
31724;SDS011;18306;40.960;14.836;2024-02-26T03:34:50;11.27;;;6.30;;
31724;SDS011;18306;40.960;14.836;2024-02-26T03:37:20;9.57;;;6.57;;
31724;SDS011;18306;40.960;14.836;2024-02-26T03:39:47;9.40;;;6.65;;
31724;SDS011;18306;40.960;14.836;2024-02-26T03:42:14;7.82;;;6.35;;
31724;SDS011;18306;40.960;14.836;2024-02-26T03:44:42;10.68;;;7.80;;
31724;SDS011;18306;40.960;14.836;2024-02-26T03:47:09;14.43;;;8.70;;
31724;SDS011;18306;40.960;14.836;2024-02-26T03:49:36;14.55;;;9.02;;
31724;SDS011;18306;40.960;14.836;2024-02-26T03:52:03;15.88;;;9.65;;
31724;SDS011;18306;40.960;14.836;2024-02-26T03:54:30;15.90;;;10.13;;
31724;SDS011;18306;40.960;14.836;2024-02-26T03:56:57;15.80;;;10.05;;
31724;SDS011;18306;40.960;14.836;2024-02-26T03:59:24;18.90;;;10.43;;
31724;SDS011;18306;40.960;14.836;2024-02-26T04:01:52;23.33;;;14.13;;
31724;SDS011;18306;40.960;14.836;2024-02-26T04:04:19;18.88;;;12.00;;
31724;SDS011;18306;40.960;14.836;2024-02-26T04:06:47;19.02;;;11.70;;
31724;SDS011;18306;40.960;14.836;2024-02-26T04:09:14;18.48;;;10.20;;
31724;SDS011;18306;40.960;14.836;2024-02-26T04:11:41;22.98;;;11.15;;
31724;SDS011;18306;40.960;14.836;2024-02-26T04:14:11;31.88;;;12.77;;
31724;SDS011;18306;40.960;14.836;2024-02-26T04:16:38;22.08;;;12.45;;
31724;SDS011;18306;40.960;14.836;2024-02-26T04:19:05;17.67;;;11.63;;
31724;SDS011;18306;40.960;14.836;2024-02-26T04:21:33;20.35;;;12.07;;
31724;SDS011;18306;40.960;14.836;2024-02-26T04:24:01;16.05;;;9.55;;
31724;SDS011;18306;40.960;14.836;2024-02-26T04:26:28;12.98;;;9.90;;
31724;SDS011;18306;40.960;14.836;2024-02-26T04:28:56;13.45;;;9.38;;
31724;SDS011;18306;40.960;14.836;2024-02-26T04:31:23;14.68;;;8.93;;
31724;SDS011;18306;40.960;14.836;2024-02-26T04:33:50;11.80;;;8.85;;
31724;SDS011;18306;40.960;14.836;2024-02-26T04:36:17;18.80;;;9.75;;
31724;SDS011;18306;40.960;14.836;2024-02-26T04:38:44;13.93;;;9.25;;
31724;SDS011;18306;40.960;14.836;2024-02-26T04:41:11;11.93;;;9.00;;
31724;SDS011;18306;40.960;14.836;2024-02-26T04:43:38;17.90;;;10.75;;
31724;SDS011;18306;40.960;14.836;2024-02-26T04:46:08;22.40;;;12.95;;
31724;SDS011;18306;40.960;14.836;2024-02-26T04:48:38;13.02;;;9.25;;
31724;SDS011;18306;40.960;14.836;2024-02-26T04:51:07;13.38;;;8.52;;
31724;SDS011;18306;40.960;14.836;2024-02-26T04:53:34;15.57;;;9.63;;
31724;SDS011;18306;40.960;14.836;2024-02-26T04:56:02;16.38;;;9.98;;
31724;SDS011;18306;40.960;14.836;2024-02-26T04:58:29;14.48;;;10.05;;
31724;SDS011;18306;40.960;14.836;2024-02-26T05:00:56;16.08;;;10.73;;
31724;SDS011;18306;40.960;14.836;2024-02-26T05:03:23;13.55;;;8.95;;
31724;SDS011;18306;40.960;14.836;2024-02-26T05:05:50;14.60;;;9.45;;
31724;SDS011;18306;40.960;14.836;2024-02-26T05:08:17;18.33;;;10.30;;
31724;SDS011;18306;40.960;14.836;2024-02-26T05:10:45;11.43;;;8.10;;
31724;SDS011;18306;40.960;14.836;2024-02-26T05:13:12;9.15;;;7.22;;
31724;SDS011;18306;40.960;14.836;2024-02-26T05:15:41;18.48;;;10.60;;
31724;SDS011;18306;40.960;14.836;2024-02-26T05:18:08;23.33;;;9.82;;
31724;SDS011;18306;40.960;14.836;2024-02-26T05:20:35;14.32;;;8.02;;
31724;SDS011;18306;40.960;14.836;2024-02-26T05:23:04;10.80;;;8.45;;
31724;SDS011;18306;40.960;14.836;2024-02-26T05:25:31;13.98;;;10.20;;
31724;SDS011;18306;40.960;14.836;2024-02-26T05:27:58;13.00;;;9.07;;
31724;SDS011;18306;40.960;14.836;2024-02-26T05:30:25;12.50;;;9.45;;
31724;SDS011;18306;40.960;14.836;2024-02-26T05:32:54;13.52;;;8.48;;
31724;SDS011;18306;40.960;14.836;2024-02-26T05:35:21;14.70;;;9.25;;
31724;SDS011;18306;40.960;14.836;2024-02-26T05:37:48;13.32;;;9.23;;
31724;SDS011;18306;40.960;14.836;2024-02-26T05:40:15;13.00;;;9.27;;
31724;SDS011;18306;40.960;14.836;2024-02-26T05:42:42;15.05;;;9.50;;
31724;SDS011;18306;40.960;14.836;2024-02-26T05:45:11;19.45;;;10.70;;
31724;SDS011;18306;40.960;14.836;2024-02-26T05:47:38;13.40;;;9.00;;
31724;SDS011;18306;40.960;14.836;2024-02-26T05:50:11;16.02;;;11.20;;
31724;SDS011;18306;40.960;14.836;2024-02-26T05:52:38;14.20;;;9.75;;
31724;SDS011;18306;40.960;14.836;2024-02-26T05:55:06;16.00;;;10.40;;
31724;SDS011;18306;40.960;14.836;2024-02-26T05:57:34;11.60;;;9.48;;
31724;SDS011;18306;40.960;14.836;2024-02-26T06:00:01;13.75;;;9.85;;
31724;SDS011;18306;40.960;14.836;2024-02-26T06:02:38;13.38;;;9.15;;
31724;SDS011;18306;40.960;14.836;2024-02-26T06:05:05;14.88;;;9.95;;
31724;SDS011;18306;40.960;14.836;2024-02-26T06:07:33;19.25;;;12.13;;
31724;SDS011;18306;40.960;14.836;2024-02-26T06:10:01;14.43;;;9.80;;
31724;SDS011;18306;40.960;14.836;2024-02-26T06:12:30;13.88;;;10.55;;
31724;SDS011;18306;40.960;14.836;2024-02-26T06:14:57;15.77;;;11.18;;
31724;SDS011;18306;40.960;14.836;2024-02-26T06:17:27;20.35;;;12.35;;
31724;SDS011;18306;40.960;14.836;2024-02-26T06:19:54;16.25;;;10.63;;
31724;SDS011;18306;40.960;14.836;2024-02-26T06:22:21;14.63;;;9.43;;
31724;SDS011;18306;40.960;14.836;2024-02-26T06:24:48;14.25;;;9.10;;
31724;SDS011;18306;40.960;14.836;2024-02-26T06:27:15;12.80;;;9.90;;
31724;SDS011;18306;40.960;14.836;2024-02-26T06:29:42;15.25;;;10.20;;
31724;SDS011;18306;40.960;14.836;2024-02-26T06:32:09;12.80;;;9.77;;
31724;SDS011;18306;40.960;14.836;2024-02-26T06:34:36;12.93;;;9.68;;
31724;SDS011;18306;40.960;14.836;2024-02-26T06:37:04;13.68;;;9.85;;
31724;SDS011;18306;40.960;14.836;2024-02-26T06:39:31;13.35;;;9.27;;
31724;SDS011;18306;40.960;14.836;2024-02-26T06:41:58;19.52;;;11.07;;
31724;SDS011;18306;40.960;14.836;2024-02-26T06:44:29;13.82;;;10.38;;
31724;SDS011;18306;40.960;14.836;2024-02-26T06:46:58;17.20;;;10.73;;
31724;SDS011;18306;40.960;14.836;2024-02-26T06:49:26;13.07;;;9.52;;
31724;SDS011;18306;40.960;14.836;2024-02-26T06:51:53;17.33;;;11.57;;
31724;SDS011;18306;40.960;14.836;2024-02-26T06:54:20;25.38;;;16.15;;
31724;SDS011;18306;40.960;14.836;2024-02-26T06:56:47;32.78;;;21.20;;
31724;SDS011;18306;40.960;14.836;2024-02-26T06:59:15;29.08;;;19.30;;
31724;SDS011;18306;40.960;14.836;2024-02-26T07:01:42;38.90;;;28.48;;
31724;SDS011;18306;40.960;14.836;2024-02-26T07:04:08;37.83;;;26.20;;
31724;SDS011;18306;40.960;14.836;2024-02-26T07:06:37;44.15;;;31.63;;
31724;SDS011;18306;40.960;14.836;2024-02-26T07:09:04;34.22;;;24.45;;
31724;SDS011;18306;40.960;14.836;2024-02-26T07:11:31;33.30;;;22.08;;
31724;SDS011;18306;40.960;14.836;2024-02-26T07:13:58;27.30;;;18.92;;
31724;SDS011;18306;40.960;14.836;2024-02-26T07:16:25;30.95;;;19.17;;
31724;SDS011;18306;40.960;14.836;2024-02-26T07:18:53;27.15;;;18.98;;
31724;SDS011;18306;40.960;14.836;2024-02-26T07:21:20;20.20;;;13.75;;
31724;SDS011;18306;40.960;14.836;2024-02-26T07:23:47;26.02;;;16.10;;
31724;SDS011;18306;40.960;14.836;2024-02-26T07:26:14;16.50;;;11.93;;
31724;SDS011;18306;40.960;14.836;2024-02-26T07:28:41;21.25;;;14.63;;
31724;SDS011;18306;40.960;14.836;2024-02-26T07:31:08;14.57;;;11.02;;
31724;SDS011;18306;40.960;14.836;2024-02-26T07:33:35;22.98;;;14.13;;
31724;SDS011;18306;40.960;14.836;2024-02-26T07:36:02;17.77;;;13.10;;
31724;SDS011;18306;40.960;14.836;2024-02-26T07:38:29;36.10;;;23.88;;
31724;SDS011;18306;40.960;14.836;2024-02-26T07:40:56;19.25;;;10.98;;
31724;SDS011;18306;40.960;14.836;2024-02-26T07:43:23;13.82;;;9.60;;
31724;SDS011;18306;40.960;14.836;2024-02-26T07:45:50;12.18;;;9.77;;
31724;SDS011;18306;40.960;14.836;2024-02-26T07:48:17;26.80;;;17.60;;
31724;SDS011;18306;40.960;14.836;2024-02-26T07:50:44;42.85;;;28.02;;
31724;SDS011;18306;40.960;14.836;2024-02-26T07:53:11;29.23;;;19.50;;
31724;SDS011;18306;40.960;14.836;2024-02-26T07:55:39;41.55;;;26.35;;
31724;SDS011;18306;40.960;14.836;2024-02-26T07:58:06;26.58;;;18.65;;
31724;SDS011;18306;40.960;14.836;2024-02-26T08:00:33;23.52;;;15.63;;
31724;SDS011;18306;40.960;14.836;2024-02-26T08:03:00;17.05;;;11.57;;
31724;SDS011;18306;40.960;14.836;2024-02-26T08:05:27;16.42;;;13.02;;
31724;SDS011;18306;40.960;14.836;2024-02-26T08:07:54;13.82;;;11.25;;
31724;SDS011;18306;40.960;14.836;2024-02-26T08:10:22;12.13;;;9.25;;
31724;SDS011;18306;40.960;14.836;2024-02-26T08:12:49;15.10;;;11.13;;
31724;SDS011;18306;40.960;14.836;2024-02-26T08:15:16;14.43;;;10.23;;
31724;SDS011;18306;40.960;14.836;2024-02-26T08:17:45;19.73;;;12.15;;
31724;SDS011;18306;40.960;14.836;2024-02-26T08:20:13;13.85;;;10.98;;
31724;SDS011;18306;40.960;14.836;2024-02-26T08:22:40;19.50;;;14.07;;
31724;SDS011;18306;40.960;14.836;2024-02-26T08:25:07;22.88;;;13.85;;
31724;SDS011;18306;40.960;14.836;2024-02-26T08:27:36;18.77;;;14.05;;
31724;SDS011;18306;40.960;14.836;2024-02-26T08:30:03;18.20;;;13.57;;
31724;SDS011;18306;40.960;14.836;2024-02-26T08:32:30;17.90;;;11.32;;
31724;SDS011;18306;40.960;14.836;2024-02-26T08:34:57;17.27;;;10.70;;
31724;SDS011;18306;40.960;14.836;2024-02-26T08:37:24;37.60;;;25.25;;
31724;SDS011;18306;40.960;14.836;2024-02-26T08:39:51;18.83;;;11.68;;
31724;SDS011;18306;40.960;14.836;2024-02-26T08:42:18;21.35;;;11.23;;
31724;SDS011;18306;40.960;14.836;2024-02-26T08:44:45;14.32;;;10.13;;
31724;SDS011;18306;40.960;14.836;2024-02-26T08:47:12;25.50;;;13.23;;
31724;SDS011;18306;40.960;14.836;2024-02-26T08:49:42;22.42;;;15.00;;
31724;SDS011;18306;40.960;14.836;2024-02-26T08:52:10;28.52;;;18.08;;
31724;SDS011;18306;40.960;14.836;2024-02-26T08:54:37;49.92;;;27.45;;
31724;SDS011;18306;40.960;14.836;2024-02-26T08:57:04;56.92;;;34.05;;
31724;SDS011;18306;40.960;14.836;2024-02-26T08:59:31;18.02;;;11.05;;
31724;SDS011;18306;40.960;14.836;2024-02-26T09:01:58;11.55;;;7.75;;
31724;SDS011;18306;40.960;14.836;2024-02-26T09:04:25;20.55;;;11.27;;
31724;SDS011;18306;40.960;14.836;2024-02-26T09:06:53;68.38;;;40.60;;
31724;SDS011;18306;40.960;14.836;2024-02-26T09:09:20;17.02;;;10.30;;
31724;SDS011;18306;40.960;14.836;2024-02-26T09:11:48;35.05;;;18.75;;
31724;SDS011;18306;40.960;14.836;2024-02-26T09:14:18;27.98;;;13.68;;
31724;SDS011;18306;40.960;14.836;2024-02-26T09:16:45;25.70;;;15.10;;
31724;SDS011;18306;40.960;14.836;2024-02-26T09:19:14;61.67;;;33.92;;
31724;SDS011;18306;40.960;14.836;2024-02-26T09:21:44;16.73;;;9.63;;
31724;SDS011;18306;40.960;14.836;2024-02-26T09:24:12;27.45;;;14.70;;
31724;SDS011;18306;40.960;14.836;2024-02-26T09:26:39;21.90;;;12.25;;
31724;SDS011;18306;40.960;14.836;2024-02-26T09:29:06;78.57;;;40.88;;
31724;SDS011;18306;40.960;14.836;2024-02-26T09:31:34;26.65;;;14.10;;
31724;SDS011;18306;40.960;14.836;2024-02-26T09:34:01;15.70;;;9.73;;
31724;SDS011;18306;40.960;14.836;2024-02-26T09:36:28;19.30;;;11.05;;
31724;SDS011;18306;40.960;14.836;2024-02-26T09:38:57;13.68;;;8.77;;
31724;SDS011;18306;40.960;14.836;2024-02-26T09:41:24;17.30;;;9.77;;
31724;SDS011;18306;40.960;14.836;2024-02-26T09:43:55;29.17;;;16.23;;
31724;SDS011;18306;40.960;14.836;2024-02-26T09:46:24;18.77;;;10.82;;
31724;SDS011;18306;40.960;14.836;2024-02-26T09:48:51;30.95;;;19.80;;
31724;SDS011;18306;40.960;14.836;2024-02-26T09:51:19;25.40;;;14.65;;
31724;SDS011;18306;40.960;14.836;2024-02-26T09:53:52;14.65;;;8.98;;
31724;SDS011;18306;40.960;14.836;2024-02-26T09:56:19;15.88;;;7.72;;
31724;SDS011;18306;40.960;14.836;2024-02-26T09:58:47;11.73;;;6.20;;
31724;SDS011;18306;40.960;14.836;2024-02-26T10:01:19;10.05;;;5.05;;
31724;SDS011;18306;40.960;14.836;2024-02-26T10:03:52;10.30;;;5.03;;
31724;SDS011;18306;40.960;14.836;2024-02-26T10:06:23;8.07;;;4.93;;
31724;SDS011;18306;40.960;14.836;2024-02-26T10:08:54;9.48;;;4.15;;
31724;SDS011;18306;40.960;14.836;2024-02-26T10:11:24;7.25;;;3.35;;
31724;SDS011;18306;40.960;14.836;2024-02-26T10:13:53;13.15;;;4.63;;
31724;SDS011;18306;40.960;14.836;2024-02-26T10:16:20;6.60;;;3.42;;
31724;SDS011;18306;40.960;14.836;2024-02-26T10:18:51;8.80;;;5.40;;
31724;SDS011;18306;40.960;14.836;2024-02-26T10:21:22;8.52;;;4.60;;
31724;SDS011;18306;40.960;14.836;2024-02-26T10:23:49;8.98;;;4.28;;
31724;SDS011;18306;40.960;14.836;2024-02-26T10:26:16;7.57;;;4.20;;
31724;SDS011;18306;40.960;14.836;2024-02-26T10:28:44;6.55;;;3.58;;
31724;SDS011;18306;40.960;14.836;2024-02-26T10:31:11;7.20;;;3.78;;
31724;SDS011;18306;40.960;14.836;2024-02-26T10:33:40;8.38;;;3.97;;
31724;SDS011;18306;40.960;14.836;2024-02-26T10:36:09;10.30;;;4.75;;
31724;SDS011;18306;40.960;14.836;2024-02-26T10:38:36;9.02;;;4.65;;
31724;SDS011;18306;40.960;14.836;2024-02-26T10:41:04;9.30;;;4.55;;
31724;SDS011;18306;40.960;14.836;2024-02-26T10:43:39;5.25;;;3.15;;
31724;SDS011;18306;40.960;14.836;2024-02-26T10:46:06;7.28;;;2.70;;
31724;SDS011;18306;40.960;14.836;2024-02-26T10:48:33;5.85;;;3.60;;
31724;SDS011;18306;40.960;14.836;2024-02-26T10:51:01;6.55;;;3.30;;
31724;SDS011;18306;40.960;14.836;2024-02-26T10:53:29;4.93;;;2.83;;
31724;SDS011;18306;40.960;14.836;2024-02-26T10:56:03;4.90;;;3.13;;
31724;SDS011;18306;40.960;14.836;2024-02-26T10:58:31;8.52;;;3.65;;
31724;SDS011;18306;40.960;14.836;2024-02-26T11:00:58;7.05;;;3.63;;
31724;SDS011;18306;40.960;14.836;2024-02-26T11:03:26;13.77;;;5.20;;
31724;SDS011;18306;40.960;14.836;2024-02-26T11:05:58;9.73;;;4.82;;
31724;SDS011;18306;40.960;14.836;2024-02-26T11:08:26;8.98;;;3.88;;
31724;SDS011;18306;40.960;14.836;2024-02-26T11:10:56;9.93;;;4.78;;
31724;SDS011;18306;40.960;14.836;2024-02-26T11:13:26;12.57;;;6.13;;
31724;SDS011;18306;40.960;14.836;2024-02-26T11:15:56;12.45;;;5.95;;
31724;SDS011;18306;40.960;14.836;2024-02-26T11:18:23;10.55;;;3.70;;
31724;SDS011;18306;40.960;14.836;2024-02-26T11:20:54;15.73;;;6.97;;
31724;SDS011;18306;40.960;14.836;2024-02-26T11:23:23;11.55;;;4.93;;
31724;SDS011;18306;40.960;14.836;2024-02-26T11:25:50;18.55;;;7.78;;
31724;SDS011;18306;40.960;14.836;2024-02-26T11:28:20;14.68;;;6.25;;
31724;SDS011;18306;40.960;14.836;2024-02-26T11:30:49;16.17;;;7.32;;
31724;SDS011;18306;40.960;14.836;2024-02-26T11:33:17;11.02;;;5.05;;
31724;SDS011;18306;40.960;14.836;2024-02-26T11:35:45;30.60;;;7.03;;
31724;SDS011;18306;40.960;14.836;2024-02-26T11:38:23;16.23;;;5.60;;
31724;SDS011;18306;40.960;14.836;2024-02-26T11:40:52;11.50;;;5.45;;
31724;SDS011;18306;40.960;14.836;2024-02-26T11:43:23;16.58;;;6.28;;
31724;SDS011;18306;40.960;14.836;2024-02-26T11:46:31;16.67;;;8.88;;
31724;SDS011;18306;40.960;14.836;2024-02-26T11:49:00;25.95;;;9.43;;
31724;SDS011;18306;40.960;14.836;2024-02-26T11:51:32;21.55;;;10.00;;
31724;SDS011;18306;40.960;14.836;2024-02-26T11:54:01;18.65;;;8.98;;
31724;SDS011;18306;40.960;14.836;2024-02-26T11:56:28;9.35;;;3.85;;
31724;SDS011;18306;40.960;14.836;2024-02-26T11:59:10;8.77;;;3.63;;
31724;SDS011;18306;40.960;14.836;2024-02-26T12:01:39;7.28;;;2.70;;
31724;SDS011;18306;40.960;14.836;2024-02-26T12:04:26;29.42;;;16.90;;
31724;SDS011;18306;40.960;14.836;2024-02-26T12:06:57;13.77;;;7.97;;
31724;SDS011;18306;40.960;14.836;2024-02-26T12:09:41;14.90;;;8.57;;
31724;SDS011;18306;40.960;14.836;2024-02-26T12:12:09;16.35;;;7.03;;
31724;SDS011;18306;40.960;14.836;2024-02-26T12:14:51;17.98;;;12.35;;
31724;SDS011;18306;40.960;14.836;2024-02-26T12:17:19;23.05;;;12.02;;
31724;SDS011;18306;40.960;14.836;2024-02-26T12:19:49;13.68;;;7.47;;
31724;SDS011;18306;40.960;14.836;2024-02-26T12:22:19;10.80;;;7.10;;
31724;SDS011;18306;40.960;14.836;2024-02-26T12:25:03;7.68;;;5.18;;
31724;SDS011;18306;40.960;14.836;2024-02-26T12:27:37;10.55;;;5.22;;
31724;SDS011;18306;40.960;14.836;2024-02-26T12:32:52;6.43;;;3.50;;
31724;SDS011;18306;40.960;14.836;2024-02-26T12:35:36;5.22;;;3.97;;
31724;SDS011;18306;40.960;14.836;2024-02-26T12:38:09;6.05;;;4.00;;
31724;SDS011;18306;40.960;14.836;2024-02-26T12:40:44;8.90;;;4.28;;
31724;SDS011;18306;40.960;14.836;2024-02-26T12:43:13;7.20;;;3.17;;
31724;SDS011;18306;40.960;14.836;2024-02-26T12:45:42;5.10;;;2.90;;
31724;SDS011;18306;40.960;14.836;2024-02-26T12:48:12;5.15;;;2.28;;
31724;SDS011;18306;40.960;14.836;2024-02-26T12:50:40;8.77;;;3.20;;
31724;SDS011;18306;40.960;14.836;2024-02-26T12:53:13;6.43;;;2.72;;
31724;SDS011;18306;40.960;14.836;2024-02-26T12:55:40;5.00;;;3.40;;
31724;SDS011;18306;40.960;14.836;2024-02-26T12:58:08;5.45;;;2.70;;
31724;SDS011;18306;40.960;14.836;2024-02-26T13:00:35;6.03;;;2.50;;
31724;SDS011;18306;40.960;14.836;2024-02-26T13:03:03;6.25;;;3.65;;
31724;SDS011;18306;40.960;14.836;2024-02-26T13:05:30;8.30;;;4.72;;
31724;SDS011;18306;40.960;14.836;2024-02-26T13:07:58;8.75;;;3.63;;
31724;SDS011;18306;40.960;14.836;2024-02-26T13:10:25;4.47;;;2.53;;
31724;SDS011;18306;40.960;14.836;2024-02-26T13:12:52;7.43;;;2.70;;
31724;SDS011;18306;40.960;14.836;2024-02-26T13:15:25;6.55;;;2.42;;
31724;SDS011;18306;40.960;14.836;2024-02-26T13:17:59;8.30;;;2.50;;
31724;SDS011;18306;40.960;14.836;2024-02-26T13:20:49;12.00;;;3.40;;
31724;SDS011;18306;40.960;14.836;2024-02-26T13:25:56;6.07;;;2.20;;
31724;SDS011;18306;40.960;14.836;2024-02-26T13:28:29;4.78;;;2.10;;
31724;SDS011;18306;40.960;14.836;2024-02-26T13:31:04;10.82;;;2.40;;
31724;SDS011;18306;40.960;14.836;2024-02-26T13:33:46;3.72;;;2.35;;
31724;SDS011;18306;40.960;14.836;2024-02-26T13:36:32;4.45;;;1.80;;
31724;SDS011;18306;40.960;14.836;2024-02-26T13:39:05;2.83;;;2.10;;
31724;SDS011;18306;40.960;14.836;2024-02-26T13:41:48;4.47;;;2.60;;
31724;SDS011;18306;40.960;14.836;2024-02-26T13:44:21;3.10;;;1.95;;
31724;SDS011;18306;40.960;14.836;2024-02-26T13:49:24;6.95;;;2.83;;
31724;SDS011;18306;40.960;14.836;2024-02-26T13:51:57;5.95;;;1.92;;
31724;SDS011;18306;40.960;14.836;2024-02-26T13:54:30;6.88;;;2.35;;
31724;SDS011;18306;40.960;14.836;2024-02-26T13:57:05;4.03;;;2.33;;
31724;SDS011;18306;40.960;14.836;2024-02-26T13:59:39;17.45;;;10.20;;
31724;SDS011;18306;40.960;14.836;2024-02-26T14:02:15;49.80;;;27.38;;
31724;SDS011;18306;40.960;14.836;2024-02-26T14:04:46;32.20;;;14.52;;
31724;SDS011;18306;40.960;14.836;2024-02-26T14:07:13;32.03;;;18.02;;
31724;SDS011;18306;40.960;14.836;2024-02-26T14:09:41;25.98;;;15.82;;
31724;SDS011;18306;40.960;14.836;2024-02-26T14:12:08;20.20;;;12.05;;
31724;SDS011;18306;40.960;14.836;2024-02-26T14:14:35;27.30;;;13.60;;
31724;SDS011;18306;40.960;14.836;2024-02-26T14:17:04;16.15;;;8.90;;
31724;SDS011;18306;40.960;14.836;2024-02-26T14:19:31;16.10;;;7.38;;
31724;SDS011;18306;40.960;14.836;2024-02-26T14:21:59;18.33;;;7.00;;
31724;SDS011;18306;40.960;14.836;2024-02-26T14:24:26;10.95;;;6.85;;
31724;SDS011;18306;40.960;14.836;2024-02-26T14:26:53;10.45;;;4.63;;
31724;SDS011;18306;40.960;14.836;2024-02-26T14:29:20;8.93;;;3.80;;
31724;SDS011;18306;40.960;14.836;2024-02-26T14:31:47;20.40;;;10.80;;
31724;SDS011;18306;40.960;14.836;2024-02-26T14:34:14;17.65;;;9.00;;
31724;SDS011;18306;40.960;14.836;2024-02-26T14:36:43;12.57;;;8.38;;